Time;durP1;ratioP1;P1;durP2;ratioP2;P2;SDS_P1;SDS_P2;PMS_P1;PMS_P2;Temp;Humidity;BMP_temperature;BMP_pressure;BME280_temperature;BME280_humidity;BME280_pressure;Samples;Min_cycle;Max_cycle;Signal;HPM_P1;HPM_P2
2023/11/29 00:01:20;;;;;;;8.02;6.20;;;;;;;;;;5124833;27;20100;-81
2023/11/29 00:03:47;;;;;;;7.78;6.45;;;;;;;;;;5103936;28;20509;-81
2023/11/29 00:06:14;;;;;;;9.52;6.63;;;;;;;;;;5123551;27;20440;-81
2023/11/29 00:08:41;;;;;;;7.68;5.93;;;;;;;;;;5124565;27;20432;-79
2023/11/29 00:11:07;;;;;;;8.77;6.63;;;;;;;;;;5121902;27;20054;-79
2023/11/29 00:13:34;;;;;;;6.00;5.07;;;;;;;;;;5125428;27;20404;-80
2023/11/29 00:16:01;;;;;;;7.70;5.90;;;;;;;;;;5107454;28;20047;-80
2023/11/29 00:18:28;;;;;;;7.32;5.60;;;;;;;;;;5127755;27;20075;-80
2023/11/29 00:20:55;;;;;;;7.45;5.90;;;;;;;;;;5128428;27;20129;-80
2023/11/29 00:23:22;;;;;;;8.25;5.78;;;;;;;;;;5092101;28;20095;-80
2023/11/29 00:25:48;;;;;;;9.20;5.68;;;;;;;;;;5107760;28;20421;-80
2023/11/29 00:28:15;;;;;;;6.93;5.47;;;;;;;;;;5122737;27;20106;-80
2023/11/29 00:30:42;;;;;;;9.35;6.40;;;;;;;;;;5104736;27;20089;-81
2023/11/29 00:33:09;;;;;;;9.10;6.15;;;;;;;;;;5121131;27;20062;-80
2023/11/29 00:35:36;;;;;;;7.80;5.85;;;;;;;;;;5104268;27;20067;-81
2023/11/29 00:38:02;;;;;;;6.90;5.63;;;;;;;;;;5089874;27;20062;-81
2023/11/29 00:40:29;;;;;;;6.63;5.28;;;;;;;;;;5126892;27;20087;-81
2023/11/29 00:42:56;;;;;;;7.22;5.70;;;;;;;;;;5126879;27;20051;-81
2023/11/29 00:45:34;;;;;;;6.32;5.30;;;;;;;;;;5112899;27;20051;-79
2023/11/29 00:48:01;;;;;;;7.65;5.95;;;;;;;;;;5139090;27;20050;-80
2023/11/29 00:50:28;;;;;;;6.10;5.22;;;;;;;;;;5103807;27;20058;-80
2023/11/29 00:52:56;;;;;;;6.20;5.07;;;;;;;;;;5120980;27;20574;-80
2023/11/29 00:55:22;;;;;;;6.40;5.43;;;;;;;;;;5101798;27;20075;-80
2023/11/29 00:58:00;;;;;;;6.82;5.05;;;;;;;;;;5123061;27;20055;-80
2023/11/29 01:00:28;;;;;;;8.30;6.07;;;;;;;;;;5120314;27;20043;-80
2023/11/29 01:02:56;;;;;;;7.07;5.82;;;;;;;;;;5101776;28;20047;-81
2023/11/29 01:05:25;;;;;;;8.95;6.28;;;;;;;;;;5104628;27;20501;-81
2023/11/29 01:07:52;;;;;;;8.95;6.13;;;;;;;;;;5123509;27;20142;-80
2023/11/29 01:10:18;;;;;;;8.77;6.40;;;;;;;;;;5122372;27;20081;-80
2023/11/29 01:12:48;;;;;;;8.45;6.38;;;;;;;;;;5123083;27;20057;-81
2023/11/29 01:15:15;;;;;;;9.63;6.60;;;;;;;;;;5103636;28;20056;-81
2023/11/29 01:17:43;;;;;;;9.00;6.72;;;;;;;;;;5123345;27;20047;-81
2023/11/29 01:20:12;;;;;;;10.05;6.95;;;;;;;;;;5087463;28;20056;-78
2023/11/29 01:22:39;;;;;;;8.15;6.68;;;;;;;;;;5120508;27;20178;-79
2023/11/29 01:25:06;;;;;;;10.05;7.03;;;;;;;;;;5120284;27;20101;-79
2023/11/29 01:27:33;;;;;;;9.52;7.20;;;;;;;;;;5102544;27;20089;-79
2023/11/29 01:30:02;;;;;;;9.20;6.85;;;;;;;;;;5103380;27;20055;-79
2023/11/29 01:32:29;;;;;;;11.68;7.47;;;;;;;;;;5108692;27;20063;-79
2023/11/29 01:34:56;;;;;;;10.32;6.85;;;;;;;;;;5123325;27;20043;-80
2023/11/29 01:37:23;;;;;;;9.00;6.38;;;;;;;;;;5107378;27;20715;-80
2023/11/29 01:39:49;;;;;;;9.05;6.93;;;;;;;;;;5106739;28;20048;-80
2023/11/29 01:42:17;;;;;;;9.43;7.40;;;;;;;;;;5124273;27;20403;-78
2023/11/29 01:44:44;;;;;;;9.45;7.15;;;;;;;;;;5146624;27;20051;-80
2023/11/29 01:47:12;;;;;;;11.65;6.78;;;;;;;;;;5108125;28;20089;-81
2023/11/29 01:49:39;;;;;;;11.02;7.30;;;;;;;;;;5108929;27;20089;-81
2023/11/29 01:52:06;;;;;;;11.23;7.88;;;;;;;;;;5086695;28;20055;-81
2023/11/29 01:54:33;;;;;;;9.48;6.88;;;;;;;;;;5100232;27;20075;-81
2023/11/29 01:57:00;;;;;;;8.80;6.95;;;;;;;;;;5121535;28;20046;-81
2023/11/29 01:59:27;;;;;;;10.02;7.50;;;;;;;;;;5085628;28;20487;-80
2023/11/29 02:01:54;;;;;;;10.48;7.32;;;;;;;;;;5121710;28;20150;-82
2023/11/29 02:04:20;;;;;;;11.77;7.65;;;;;;;;;;5104495;28;20055;-83
2023/11/29 02:06:47;;;;;;;10.05;7.03;;;;;;;;;;5120889;28;20047;-79
2023/11/29 02:09:14;;;;;;;10.88;8.32;;;;;;;;;;5103232;28;20126;-79
2023/11/29 02:11:42;;;;;;;9.35;7.10;;;;;;;;;;5120456;28;20055;-79
2023/11/29 02:14:09;;;;;;;9.23;7.22;;;;;;;;;;5112648;28;20040;-75
2023/11/29 02:16:36;;;;;;;13.48;7.57;;;;;;;;;;5138716;28;20027;-79
2023/11/29 02:19:03;;;;;;;11.60;7.22;;;;;;;;;;5120894;28;20032;-78
2023/11/29 02:21:30;;;;;;;10.57;7.15;;;;;;;;;;5124541;28;20051;-79
2023/11/29 02:24:01;;;;;;;10.10;7.32;;;;;;;;;;5133067;28;20150;-79
2023/11/29 02:26:28;;;;;;;8.05;6.43;;;;;;;;;;5115833;28;20082;-79
2023/11/29 02:28:54;;;;;;;11.95;7.35;;;;;;;;;;5081533;28;20052;-79
2023/11/29 02:31:21;;;;;;;11.95;7.60;;;;;;;;;;5121600;27;20051;-79
2023/11/29 02:33:48;;;;;;;11.02;7.35;;;;;;;;;;5105819;27;20098;-80
2023/11/29 02:36:15;;;;;;;8.40;6.45;;;;;;;;;;5102693;28;20138;-79
2023/11/29 02:38:41;;;;;;;8.55;6.13;;;;;;;;;;5122410;27;20294;-78
2023/11/29 02:41:08;;;;;;;9.20;6.50;;;;;;;;;;5106494;27;20082;-79
2023/11/29 02:43:35;;;;;;;11.02;7.50;;;;;;;;;;5122949;27;20043;-76
2023/11/29 02:46:02;;;;;;;12.40;6.95;;;;;;;;;;5104129;28;20052;-81
2023/11/29 02:48:29;;;;;;;12.98;7.85;;;;;;;;;;5106856;27;20076;-82
2023/11/29 02:50:56;;;;;;;10.98;7.53;;;;;;;;;;5125734;27;20138;-81
2023/11/29 02:53:22;;;;;;;11.85;7.47;;;;;;;;;;5125147;27;20079;-81
2023/11/29 02:55:49;;;;;;;12.55;7.85;;;;;;;;;;5124433;27;20062;-81
2023/11/29 02:58:16;;;;;;;11.40;7.95;;;;;;;;;;5100125;28;20052;-81
2023/11/29 03:00:43;;;;;;;11.90;7.80;;;;;;;;;;5091655;27;20058;-82
2023/11/29 03:03:10;;;;;;;10.90;7.97;;;;;;;;;;5129300;27;20051;-82
2023/11/29 03:05:37;;;;;;;11.02;8.10;;;;;;;;;;5117443;27;20131;-81
2023/11/29 03:08:04;;;;;;;12.02;8.48;;;;;;;;;;5116117;28;20079;-79
2023/11/29 03:10:31;;;;;;;11.82;7.35;;;;;;;;;;5105617;27;20078;-79
2023/11/29 03:12:59;;;;;;;12.57;8.23;;;;;;;;;;5108636;27;20046;-80
2023/11/29 03:15:26;;;;;;;17.00;8.80;;;;;;;;;;5124389;27;20035;-81
2023/11/29 03:17:52;;;;;;;9.30;6.50;;;;;;;;;;5110650;28;20516;-81
2023/11/29 03:20:19;;;;;;;10.45;6.82;;;;;;;;;;5101036;27;20047;-81
2023/11/29 03:22:46;;;;;;;9.63;6.25;;;;;;;;;;5103871;28;20474;-82
2023/11/29 03:25:13;;;;;;;11.40;7.15;;;;;;;;;;5089807;27;20096;-80
2023/11/29 03:27:40;;;;;;;10.05;7.05;;;;;;;;;;5100507;27;20544;-80
2023/11/29 03:30:07;;;;;;;10.98;7.20;;;;;;;;;;5096532;28;20047;-80
2023/11/29 03:32:34;;;;;;;14.18;7.15;;;;;;;;;;5104257;27;20112;-79
2023/11/29 03:35:00;;;;;;;11.38;7.63;;;;;;;;;;5105589;28;20044;-81
2023/11/29 03:37:28;;;;;;;12.95;7.10;;;;;;;;;;5111502;27;20063;-82
2023/11/29 03:39:54;;;;;;;13.18;7.00;;;;;;;;;;5089833;27;20043;-83
2023/11/29 03:42:21;;;;;;;15.27;7.65;;;;;;;;;;5124635;27;20051;-81
2023/11/29 03:44:48;;;;;;;10.27;6.60;;;;;;;;;;5103080;27;20047;-81
2023/11/29 03:47:15;;;;;;;10.32;6.07;;;;;;;;;;5111547;28;20500;-81
2023/11/29 03:49:42;;;;;;;12.32;6.97;;;;;;;;;;5121199;27;20058;-81
2023/11/29 03:52:08;;;;;;;9.60;6.22;;;;;;;;;;5117520;28;20056;-79
2023/11/29 03:54:35;;;;;;;9.10;6.22;;;;;;;;;;5108350;27;20043;-79
2023/11/29 03:57:02;;;;;;;9.32;6.28;;;;;;;;;;5128948;27;20501;-78
2023/11/29 03:59:29;;;;;;;11.35;7.05;;;;;;;;;;5101728;27;20052;-78
2023/11/29 04:01:56;;;;;;;11.05;6.47;;;;;;;;;;5101424;28;20135;-78
2023/11/29 04:04:22;;;;;;;10.43;6.72;;;;;;;;;;5118500;27;20043;-78
2023/11/29 04:06:49;;;;;;;10.65;6.65;;;;;;;;;;5123626;27;20062;-81
2023/11/29 04:09:16;;;;;;;9.88;6.78;;;;;;;;;;5141199;27;20055;-80
2023/11/29 04:11:46;;;;;;;7.60;5.85;;;;;;;;;;5106000;27;20672;-80
2023/11/29 04:14:13;;;;;;;9.38;6.20;;;;;;;;;;5123527;27;20047;-80
2023/11/29 04:16:39;;;;;;;8.95;6.57;;;;;;;;;;5106922;27;20054;-80
2023/11/29 04:19:06;;;;;;;8.98;5.70;;;;;;;;;;5102994;28;20086;-80
2023/11/29 04:21:34;;;;;;;10.80;6.07;;;;;;;;;;5105141;27;20051;-80
2023/11/29 04:24:01;;;;;;;8.95;6.25;;;;;;;;;;5083979;28;20044;-80
2023/11/29 04:26:33;;;;;;;9.30;6.07;;;;;;;;;;5117924;27;20055;-81
2023/11/29 04:29:03;;;;;;;11.87;7.90;;;;;;;;;;5089416;27;20054;-81
2023/11/29 04:31:30;;;;;;;10.38;6.80;;;;;;;;;;5102979;27;20516;-81
2023/11/29 04:33:57;;;;;;;11.48;6.55;;;;;;;;;;5084461;28;20131;-81
2023/11/29 04:36:24;;;;;;;13.10;7.57;;;;;;;;;;5099414;27;20055;-81
2023/11/29 04:38:54;;;;;;;12.18;7.18;;;;;;;;;;5101029;28;20143;-80
2023/11/29 04:41:22;;;;;;;12.15;8.45;;;;;;;;;;5121853;27;20051;-82
2023/11/29 04:43:49;;;;;;;11.77;7.05;;;;;;;;;;5101543;28;20138;-82
2023/11/29 04:46:16;;;;;;;10.93;7.18;;;;;;;;;;5122003;27;20134;-80
2023/11/29 04:48:44;;;;;;;13.65;7.78;;;;;;;;;;5092251;27;20111;-79
2023/11/29 04:51:11;;;;;;;13.15;8.02;;;;;;;;;;5090245;27;20043;-80
2023/11/29 04:53:38;;;;;;;12.52;7.18;;;;;;;;;;5102271;27;20051;-80
2023/11/29 04:56:06;;;;;;;11.75;7.07;;;;;;;;;;5108009;27;20046;-80
2023/11/29 04:58:36;;;;;;;12.68;7.95;;;;;;;;;;5089661;27;20058;-79
2023/11/29 05:01:04;;;;;;;10.70;7.13;;;;;;;;;;5120849;28;20107;-79
2023/11/29 05:03:38;;;;;;;12.77;7.40;;;;;;;;;;5116809;27;20047;-80
2023/11/29 05:06:07;;;;;;;11.98;7.57;;;;;;;;;;5114517;27;20047;-80
2023/11/29 05:08:33;;;;;;;11.73;7.10;;;;;;;;;;5105153;27;20047;-80
2023/11/29 05:11:00;;;;;;;10.25;6.93;;;;;;;;;;5100694;27;20074;-80
2023/11/29 05:13:27;;;;;;;10.73;6.95;;;;;;;;;;5102044;27;20058;-81
2023/11/29 05:15:54;;;;;;;8.25;5.60;;;;;;;;;;5119693;27;20050;-80
2023/11/29 05:18:21;;;;;;;10.57;6.30;;;;;;;;;;5117343;27;20058;-79
2023/11/29 05:20:48;;;;;;;9.63;6.40;;;;;;;;;;5086446;27;20075;-79
2023/11/29 05:23:15;;;;;;;13.63;7.72;;;;;;;;;;5103783;27;20051;-80
2023/11/29 05:25:42;;;;;;;13.30;7.43;;;;;;;;;;5121455;27;20043;-79
2023/11/29 05:28:09;;;;;;;15.00;7.40;;;;;;;;;;5114970;28;20095;-79
2023/11/29 05:30:36;;;;;;;11.45;7.05;;;;;;;;;;5114195;27;20081;-75
2023/11/29 05:33:03;;;;;;;9.77;6.55;;;;;;;;;;5110476;28;20046;-78
2023/11/29 05:35:31;;;;;;;10.52;6.82;;;;;;;;;;5100805;27;20134;-79
2023/11/29 05:37:58;;;;;;;10.73;6.20;;;;;;;;;;5098475;27;20134;-80
2023/11/29 05:40:24;;;;;;;9.05;6.05;;;;;;;;;;5098738;27;20059;-81
2023/11/29 05:42:52;;;;;;;11.27;6.30;;;;;;;;;;5115989;27;20070;-82
2023/11/29 05:45:20;;;;;;;9.82;5.72;;;;;;;;;;5096641;28;20051;-81
2023/11/29 05:47:46;;;;;;;10.35;6.85;;;;;;;;;;5114491;27;20055;-81
2023/11/29 05:50:14;;;;;;;9.48;6.13;;;;;;;;;;5122760;27;20089;-80
2023/11/29 05:52:41;;;;;;;10.02;6.30;;;;;;;;;;5121688;27;20046;-80
2023/11/29 05:55:09;;;;;;;8.73;6.18;;;;;;;;;;5102969;27;20453;-80
2023/11/29 05:57:36;;;;;;;9.82;6.25;;;;;;;;;;5090671;27;20100;-79
2023/11/29 06:00:08;;;;;;;9.20;5.75;;;;;;;;;;5104453;28;20059;-79
2023/11/29 06:02:54;;;;;;;10.18;6.30;;;;;;;;;;5085373;28;20053;-80
2023/11/29 06:05:21;;;;;;;10.02;6.35;;;;;;;;;;5084024;28;20062;-80
2023/11/29 06:07:48;;;;;;;11.07;6.30;;;;;;;;;;5128043;28;20055;-80
2023/11/29 06:10:15;;;;;;;10.00;6.53;;;;;;;;;;5109793;28;20047;-81
2023/11/29 06:12:42;;;;;;;9.45;6.00;;;;;;;;;;5127059;28;20079;-81
2023/11/29 06:15:09;;;;;;;9.68;6.07;;;;;;;;;;5107002;28;20067;-81
2023/11/29 06:17:36;;;;;;;12.15;6.38;;;;;;;;;;5124278;28;20079;-82
2023/11/29 06:20:04;;;;;;;11.60;6.55;;;;;;;;;;5079992;28;20590;-82
2023/11/29 06:22:34;;;;;;;10.07;5.57;;;;;;;;;;5117343;28;20054;-82
2023/11/29 06:25:01;;;;;;;9.25;6.03;;;;;;;;;;5118956;28;20043;-82
2023/11/29 06:27:29;;;;;;;10.00;6.78;;;;;;;;;;5101241;28;20059;-82
2023/11/29 06:29:57;;;;;;;9.85;7.20;;;;;;;;;;5082581;28;20079;-80
2023/11/29 06:32:23;;;;;;;12.65;7.80;;;;;;;;;;5097758;28;20124;-82
2023/11/29 06:34:51;;;;;;;17.73;8.35;;;;;;;;;;5116385;28;20047;-84
2023/11/29 06:37:18;;;;;;;10.95;7.30;;;;;;;;;;5099624;28;20078;-85
2023/11/29 06:39:46;;;;;;;13.73;7.85;;;;;;;;;;5116869;28;20504;-83
2023/11/29 06:42:14;;;;;;;13.93;8.93;;;;;;;;;;5098426;28;20058;-83
2023/11/29 06:44:41;;;;;;;11.10;7.90;;;;;;;;;;5099970;28;20043;-81
2023/11/29 06:47:08;;;;;;;12.60;8.63;;;;;;;;;;5094276;28;20055;-79
2023/11/29 06:49:38;;;;;;;12.32;7.82;;;;;;;;;;5121149;28;20054;-79
2023/11/29 06:52:06;;;;;;;14.85;8.77;;;;;;;;;;5118369;28;20051;-79
2023/11/29 06:54:33;;;;;;;10.77;6.95;;;;;;;;;;5086187;28;20048;-79
2023/11/29 06:57:00;;;;;;;10.50;6.80;;;;;;;;;;5118966;28;20051;-79
2023/11/29 06:59:27;;;;;;;10.18;6.25;;;;;;;;;;5085889;28;20074;-79
2023/11/29 07:01:54;;;;;;;10.65;7.18;;;;;;;;;;5102850;28;20055;-79
2023/11/29 07:04:21;;;;;;;11.68;5.88;;;;;;;;;;5111513;28;20079;-81
2023/11/29 07:06:48;;;;;;;9.52;5.63;;;;;;;;;;5111736;28;20126;-80
2023/11/29 07:09:16;;;;;;;10.68;6.25;;;;;;;;;;5118440;28;20093;-80
2023/11/29 07:11:43;;;;;;;8.48;5.88;;;;;;;;;;5100890;28;20043;-80
2023/11/29 07:14:10;;;;;;;11.57;6.70;;;;;;;;;;5102312;28;20047;-79
2023/11/29 07:16:36;;;;;;;9.73;6.57;;;;;;;;;;5101932;27;20512;-79
2023/11/29 07:19:03;;;;;;;10.48;6.18;;;;;;;;;;5105345;27;20047;-79
2023/11/29 07:21:30;;;;;;;10.65;5.88;;;;;;;;;;5103765;27;20047;-80
2023/11/29 07:23:57;;;;;;;10.60;6.10;;;;;;;;;;5085642;27;20055;-81
2023/11/29 07:26:26;;;;;;;8.20;5.75;;;;;;;;;;5100150;27;20520;-81
2023/11/29 07:28:53;;;;;;;8.00;5.35;;;;;;;;;;5100741;27;20047;-80
2023/11/29 07:31:20;;;;;;;10.82;7.20;;;;;;;;;;5106399;27;20055;-79
2023/11/29 07:33:47;;;;;;;12.43;7.05;;;;;;;;;;5119302;27;20527;-80
2023/11/29 07:36:13;;;;;;;10.20;5.88;;;;;;;;;;5115064;27;20079;-80
2023/11/29 07:38:40;;;;;;;10.75;6.90;;;;;;;;;;5099413;27;20065;-79
2023/11/29 07:41:10;;;;;;;11.35;7.00;;;;;;;;;;5098465;28;20125;-79
2023/11/29 07:43:37;;;;;;;12.90;6.90;;;;;;;;;;5080778;27;20140;-80
2023/11/29 07:46:04;;;;;;;11.77;7.03;;;;;;;;;;5112064;27;20059;-80
2023/11/29 07:48:32;;;;;;;13.50;7.80;;;;;;;;;;5079724;27;20047;-80
2023/11/29 07:50:59;;;;;;;11.48;6.93;;;;;;;;;;5096901;27;20067;-77
2023/11/29 07:53:26;;;;;;;11.25;6.57;;;;;;;;;;5081005;27;20055;-79
2023/11/29 07:55:54;;;;;;;11.45;6.80;;;;;;;;;;5117445;27;20066;-79
2023/11/29 07:58:21;;;;;;;12.35;6.95;;;;;;;;;;5097319;28;20075;-82
2023/11/29 08:00:57;;;;;;;8.32;5.90;;;;;;;;;;5099147;27;20059;-81
2023/11/29 08:03:24;;;;;;;8.50;6.25;;;;;;;;;;5117345;27;20486;-81
2023/11/29 08:05:51;;;;;;;9.73;6.55;;;;;;;;;;5118626;27;20096;-81
2023/11/29 08:08:17;;;;;;;8.50;5.80;;;;;;;;;;5114988;28;20120;-79
2023/11/29 08:10:46;;;;;;;10.70;6.53;;;;;;;;;;5097686;27;20055;-81
2023/11/29 08:13:13;;;;;;;10.73;6.47;;;;;;;;;;5081482;27;20047;-81
2023/11/29 08:15:41;;;;;;;8.85;6.20;;;;;;;;;;5117751;27;20051;-81
2023/11/29 08:18:09;;;;;;;10.30;5.68;;;;;;;;;;5117790;27;20051;-81
2023/11/29 08:20:36;;;;;;;9.30;5.68;;;;;;;;;;5118216;27;20115;-80
2023/11/29 08:23:04;;;;;;;9.90;6.72;;;;;;;;;;5120061;27;20050;-82
2023/11/29 08:25:30;;;;;;;7.05;4.90;;;;;;;;;;5117400;27;20047;-80
2023/11/29 08:27:57;;;;;;;9.48;5.70;;;;;;;;;;5100600;27;20108;-82
2023/11/29 08:30:24;;;;;;;10.40;5.45;;;;;;;;;;5123121;27;20050;-81
2023/11/29 08:32:51;;;;;;;6.45;5.05;;;;;;;;;;5122117;27;20061;-81
2023/11/29 08:35:18;;;;;;;9.05;5.15;;;;;;;;;;5121642;27;20096;-80
2023/11/29 08:37:45;;;;;;;8.00;5.13;;;;;;;;;;5117689;27;20064;-78
2023/11/29 08:40:12;;;;;;;6.82;4.60;;;;;;;;;;5096135;27;20668;-78
2023/11/29 08:42:39;;;;;;;7.55;4.55;;;;;;;;;;5107174;27;20152;-79
2023/11/29 08:45:08;;;;;;;5.78;4.22;;;;;;;;;;5092508;28;20052;-79
2023/11/29 08:47:35;;;;;;;6.53;4.50;;;;;;;;;;5080902;27;20610;-79
2023/11/29 08:50:05;;;;;;;6.90;4.70;;;;;;;;;;5113850;27;20051;-79
2023/11/29 08:52:32;;;;;;;7.47;5.18;;;;;;;;;;5100009;27;20548;-80
2023/11/29 08:55:00;;;;;;;5.00;3.88;;;;;;;;;;5096151;28;20083;-79
2023/11/29 08:57:27;;;;;;;6.15;4.93;;;;;;;;;;5071550;27;20058;-80
2023/11/29 08:59:54;;;;;;;5.07;4.07;;;;;;;;;;5100472;28;20050;-79
2023/11/29 09:02:22;;;;;;;7.55;5.18;;;;;;;;;;5118160;27;20095;-80
2023/11/29 09:04:51;;;;;;;7.68;4.57;;;;;;;;;;5102595;28;20043;-79
2023/11/29 09:07:21;;;;;;;4.65;3.60;;;;;;;;;;5133211;27;20039;-80
2023/11/29 09:09:48;;;;;;;3.63;3.10;;;;;;;;;;5125413;27;20049;-79
2023/11/29 09:12:16;;;;;;;5.63;3.97;;;;;;;;;;5110730;27;20058;-79
2023/11/29 09:14:43;;;;;;;5.25;3.50;;;;;;;;;;5097206;27;20051;-79
2023/11/29 09:17:11;;;;;;;5.18;3.60;;;;;;;;;;5102011;27;20077;-80
2023/11/29 09:19:38;;;;;;;6.18;3.80;;;;;;;;;;5114025;27;20185;-80
2023/11/29 09:22:07;;;;;;;4.60;3.53;;;;;;;;;;5099669;27;20131;-80
2023/11/29 09:24:35;;;;;;;3.67;3.13;;;;;;;;;;5117170;27;20059;-80
2023/11/29 09:27:04;;;;;;;4.22;3.22;;;;;;;;;;5102127;27;20118;-80
2023/11/29 09:29:33;;;;;;;7.07;3.30;;;;;;;;;;5123373;27;20047;-79
2023/11/29 09:32:00;;;;;;;5.82;3.22;;;;;;;;;;5107428;27;20077;-81
2023/11/29 09:34:27;;;;;;;4.80;3.65;;;;;;;;;;5108772;27;20046;-80
2023/11/29 09:36:59;;;;;;;6.80;4.32;;;;;;;;;;5124555;27;20047;-79
2023/11/29 09:39:30;;;;;;;4.70;3.72;;;;;;;;;;5121073;27;20584;-80
2023/11/29 09:41:59;;;;;;;4.68;3.70;;;;;;;;;;5124531;27;20058;-80
2023/11/29 09:44:26;;;;;;;4.55;3.53;;;;;;;;;;5088710;27;20092;-80
2023/11/29 09:46:53;;;;;;;6.10;3.65;;;;;;;;;;5084705;28;20082;-80
2023/11/29 09:49:20;;;;;;;4.07;3.08;;;;;;;;;;5085862;27;20053;-81
2023/11/29 09:51:47;;;;;;;4.70;3.38;;;;;;;;;;5099522;28;20058;-81
2023/11/29 09:54:15;;;;;;;5.78;3.70;;;;;;;;;;5096030;28;20448;-81
2023/11/29 09:56:42;;;;;;;7.03;3.50;;;;;;;;;;5099001;28;20108;-81
2023/11/29 09:59:09;;;;;;;5.30;3.70;;;;;;;;;;5091653;27;20057;-80
2023/11/29 10:01:46;;;;;;;4.10;3.30;;;;;;;;;;5092837;28;20039;-80
2023/11/29 10:04:14;;;;;;;4.40;3.50;;;;;;;;;;5081858;28;20064;-80
2023/11/29 10:06:41;;;;;;;4.25;3.13;;;;;;;;;;5106716;28;20473;-80
2023/11/29 10:09:11;;;;;;;4.20;3.65;;;;;;;;;;5097132;28;20055;-80
2023/11/29 10:11:43;;;;;;;3.88;3.47;;;;;;;;;;5085363;28;20052;-80
2023/11/29 10:14:10;;;;;;;3.78;3.15;;;;;;;;;;5080629;28;20083;-79
2023/11/29 10:16:38;;;;;;;8.13;4.60;;;;;;;;;;5096290;28;20530;-78
2023/11/29 10:19:06;;;;;;;7.10;4.00;;;;;;;;;;5078066;28;20096;-79
2023/11/29 10:21:34;;;;;;;4.57;3.92;;;;;;;;;;5094449;28;20055;-80
2023/11/29 10:24:01;;;;;;;6.10;4.53;;;;;;;;;;5080666;28;20368;-79
2023/11/29 10:26:28;;;;;;;4.57;3.85;;;;;;;;;;5114199;28;20563;-80
2023/11/29 10:28:55;;;;;;;6.60;4.00;;;;;;;;;;5115409;28;20462;-80
2023/11/29 10:31:22;;;;;;;4.63;3.47;;;;;;;;;;5117416;28;20079;-80
2023/11/29 10:33:50;;;;;;;6.20;3.47;;;;;;;;;;5079148;28;20075;-80
2023/11/29 10:36:18;;;;;;;3.90;3.13;;;;;;;;;;5112941;28;20051;-79
2023/11/29 10:38:53;;;;;;;4.70;3.08;;;;;;;;;;5083742;28;20059;-80
2023/11/29 10:41:20;;;;;;;4.47;3.28;;;;;;;;;;5101169;28;20051;-79
2023/11/29 10:43:47;;;;;;;4.05;3.05;;;;;;;;;;5096426;28;20055;-80
2023/11/29 10:46:16;;;;;;;4.40;3.22;;;;;;;;;;5079313;28;20048;-80
2023/11/29 10:48:47;;;;;;;6.75;3.30;;;;;;;;;;5082451;27;20050;-80
2023/11/29 10:51:14;;;;;;;4.32;3.05;;;;;;;;;;5098906;28;20051;-80
2023/11/29 10:53:41;;;;;;;4.45;3.47;;;;;;;;;;5119004;27;20504;-80
2023/11/29 10:56:08;;;;;;;4.25;3.45;;;;;;;;;;5082682;28;20482;-80
2023/11/29 10:58:48;;;;;;;4.18;3.10;;;;;;;;;;5084142;27;20058;-79
2023/11/29 11:01:15;;;;;;;4.32;3.15;;;;;;;;;;5100275;28;20134;-80
2023/11/29 11:03:42;;;;;;;6.90;3.10;;;;;;;;;;5101790;27;20087;-79
2023/11/29 11:06:38;;;;;;;4.50;2.92;;;;;;;;;;5120005;27;20051;-80
2023/11/29 11:09:44;;;;;;;3.92;3.15;;;;;;;;;;5068398;27;20062;-79
2023/11/29 11:12:31;;;;;;;7.03;3.67;;;;;;;;;;5095723;27;20069;-78
2023/11/29 11:14:58;;;;;;;4.88;3.35;;;;;;;;;;5114049;27;20058;-78
2023/11/29 11:17:26;;;;;;;4.18;3.08;;;;;;;;;;5079726;27;20059;-80
2023/11/29 11:19:53;;;;;;;5.72;3.90;;;;;;;;;;5120960;27;20100;-80
2023/11/29 11:22:30;;;;;;;6.78;3.47;;;;;;;;;;5098067;28;20677;-79
2023/11/29 11:24:59;;;;;;;4.78;3.35;;;;;;;;;;5083259;27;20503;-81
2023/11/29 11:27:32;;;;;;;5.95;3.42;;;;;;;;;;5117837;27;20078;-79
2023/11/29 11:30:12;;;;;;;3.25;2.70;;;;;;;;;;5118441;27;20081;-81
2023/11/29 11:32:42;;;;;;;4.10;3.00;;;;;;;;;;5113282;27;20087;-80
2023/11/29 11:37:50;;;;;;;5.03;3.33;;;;;;;;;;5129559;27;20496;-80
2023/11/29 11:40:17;;;;;;;4.15;3.03;;;;;;;;;;5081757;27;20082;-79
2023/11/29 11:42:45;;;;;;;3.92;2.60;;;;;;;;;;5117733;27;20043;-80
2023/11/29 11:45:16;;;;;;;3.38;2.40;;;;;;;;;;5083535;27;20051;-80
2023/11/29 11:47:43;;;;;;;4.80;2.45;;;;;;;;;;5083532;27;20086;-79
2023/11/29 11:50:14;;;;;;;8.02;3.05;;;;;;;;;;5115199;27;20070;-79
2023/11/29 11:52:41;;;;;;;7.32;3.38;;;;;;;;;;5099222;27;20055;-78
2023/11/29 11:55:10;;;;;;;7.35;3.42;;;;;;;;;;5114413;27;20061;-81
2023/11/29 11:57:40;;;;;;;4.60;2.55;;;;;;;;;;5074642;27;20051;-82
2023/11/29 12:00:08;;;;;;;4.78;2.72;;;;;;;;;;5116011;27;20047;-81
2023/11/29 12:02:39;;;;;;;7.25;4.13;;;;;;;;;;5099911;27;20071;-79
2023/11/29 12:05:07;;;;;;;4.50;3.03;;;;;;;;;;5098081;28;20051;-79
2023/11/29 12:07:43;;;;;;;5.32;3.22;;;;;;;;;;5098799;27;20060;-79
2023/11/29 12:10:15;;;;;;;5.53;3.40;;;;;;;;;;5112754;27;20058;-79
2023/11/29 12:12:43;;;;;;;3.83;2.17;;;;;;;;;;5099585;27;20089;-78
2023/11/29 12:15:15;;;;;;;3.10;2.38;;;;;;;;;;5095603;27;20509;-78
2023/11/29 12:17:44;;;;;;;3.67;2.65;;;;;;;;;;5110737;27;20035;-80
2023/11/29 12:20:12;;;;;;;5.43;3.00;;;;;;;;;;5116322;27;20082;-79
2023/11/29 12:22:45;;;;;;;4.38;2.83;;;;;;;;;;5096396;27;20055;-79
2023/11/29 12:25:14;;;;;;;3.97;2.60;;;;;;;;;;5081095;27;20051;-80
2023/11/29 12:27:50;;;;;;;4.13;2.50;;;;;;;;;;5115899;27;20093;-79
2023/11/29 12:30:19;;;;;;;3.58;2.95;;;;;;;;;;5085562;27;20653;-80
2023/11/29 12:32:47;;;;;;;4.05;2.50;;;;;;;;;;5092510;27;20065;-80
2023/11/29 12:35:15;;;;;;;3.88;2.50;;;;;;;;;;5096757;27;20463;-79
2023/11/29 12:37:48;;;;;;;4.72;2.30;;;;;;;;;;5102689;27;20101;-79
2023/11/29 12:40:17;;;;;;;3.47;2.28;;;;;;;;;;5117363;27;20081;-78
2023/11/29 12:42:48;;;;;;;4.78;2.72;;;;;;;;;;5121849;27;20039;-80
2023/11/29 12:45:17;;;;;;;3.00;2.25;;;;;;;;;;5115734;28;20056;-80
2023/11/29 12:47:44;;;;;;;2.33;2.00;;;;;;;;;;5116619;27;20054;-79
2023/11/29 12:50:11;;;;;;;4.90;2.60;;;;;;;;;;5080203;28;20162;-78
2023/11/29 12:52:39;;;;;;;3.50;2.60;;;;;;;;;;5098800;27;20066;-79
2023/11/29 12:55:07;;;;;;;2.72;2.28;;;;;;;;;;5115284;27;20050;-80
2023/11/29 12:57:34;;;;;;;2.63;2.20;;;;;;;;;;5116840;27;20056;-79
2023/11/29 13:00:01;;;;;;;3.05;2.50;;;;;;;;;;5116415;27;20119;-79
2023/11/29 13:02:28;;;;;;;2.55;2.35;;;;;;;;;;5115855;27;20103;-79
2023/11/29 13:04:55;;;;;;;2.80;1.83;;;;;;;;;;5079893;28;20051;-80
2023/11/29 13:07:22;;;;;;;3.50;2.67;;;;;;;;;;5101309;27;20047;-80
2023/11/29 13:09:50;;;;;;;2.10;1.90;;;;;;;;;;5104950;27;20086;-80
2023/11/29 13:12:17;;;;;;;2.80;1.83;;;;;;;;;;5111498;27;20526;-79
2023/11/29 13:14:44;;;;;;;2.78;2.20;;;;;;;;;;5111011;27;20504;-78
2023/11/29 13:17:12;;;;;;;2.55;2.25;;;;;;;;;;5085227;27;20050;-79
2023/11/29 13:19:40;;;;;;;2.22;2.03;;;;;;;;;;5097520;27;20061;-78
2023/11/29 13:22:08;;;;;;;2.63;1.90;;;;;;;;;;5076167;27;20079;-78
2023/11/29 13:24:36;;;;;;;2.33;1.92;;;;;;;;;;5101958;27;20075;-78
2023/11/29 13:27:06;;;;;;;3.28;2.00;;;;;;;;;;5095117;27;20051;-79
2023/11/29 13:29:33;;;;;;;2.35;2.05;;;;;;;;;;5106000;27;20489;-79
2023/11/29 13:32:02;;;;;;;3.28;2.50;;;;;;;;;;5097968;28;20075;-79
2023/11/29 13:34:30;;;;;;;2.75;2.20;;;;;;;;;;5096502;27;20159;-79
2023/11/29 13:36:58;;;;;;;2.08;1.85;;;;;;;;;;5101439;28;20062;-79
2023/11/29 13:39:27;;;;;;;1.92;1.67;;;;;;;;;;5102035;27;20497;-79
2023/11/29 13:41:55;;;;;;;2.65;2.20;;;;;;;;;;5086684;27;20047;-79
2023/11/29 13:44:26;;;;;;;3.38;2.33;;;;;;;;;;5096518;27;20065;-79
2023/11/29 13:46:55;;;;;;;3.03;2.20;;;;;;;;;;5089750;28;20047;-79
2023/11/29 13:49:23;;;;;;;3.45;2.55;;;;;;;;;;5097367;27;20055;-79
2023/11/29 13:51:50;;;;;;;5.05;2.55;;;;;;;;;;5123144;27;20527;-79
2023/11/29 13:54:35;;;;;;;4.50;2.67;;;;;;;;;;5104105;28;20112;-78
2023/11/29 13:57:03;;;;;;;5.03;2.80;;;;;;;;;;5093219;27;20048;-79
2023/11/29 13:59:31;;;;;;;3.35;2.22;;;;;;;;;;5103605;27;20426;-78
2023/11/29 14:01:58;;;;;;;3.35;2.53;;;;;;;;;;5096121;28;20059;-79
2023/11/29 14:04:32;;;;;;;10.98;5.00;;;;;;;;;;5097288;28;20048;-79
2023/11/29 14:07:00;;;;;;;8.63;4.20;;;;;;;;;;5076517;28;20054;-79
2023/11/29 14:09:27;;;;;;;5.78;3.65;;;;;;;;;;5120784;28;20519;-78
2023/11/29 14:11:55;;;;;;;7.47;3.30;;;;;;;;;;5106381;28;20464;-79
2023/11/29 14:14:23;;;;;;;3.97;2.38;;;;;;;;;;5108811;28;20047;-79
2023/11/29 14:16:50;;;;;;;3.33;2.22;;;;;;;;;;5090801;28;20053;-79
2023/11/29 14:19:17;;;;;;;3.10;2.28;;;;;;;;;;5089648;28;20058;-79
2023/11/29 14:21:44;;;;;;;4.55;2.42;;;;;;;;;;5095310;28;20267;-78
2023/11/29 14:24:11;;;;;;;3.70;2.55;;;;;;;;;;5104880;27;20051;-78
2023/11/29 14:26:40;;;;;;;5.07;2.60;;;;;;;;;;5090714;27;20075;-78
2023/11/29 14:29:07;;;;;;;3.47;2.50;;;;;;;;;;5081459;28;20083;-78
2023/11/29 14:31:34;;;;;;;5.00;3.33;;;;;;;;;;5110071;27;20511;-79
2023/11/29 14:34:02;;;;;;;3.95;2.60;;;;;;;;;;5095068;27;20051;-80
2023/11/29 14:36:29;;;;;;;2.45;2.00;;;;;;;;;;5083405;27;20054;-79
2023/11/29 14:38:56;;;;;;;2.50;2.20;;;;;;;;;;5103683;28;20044;-79
2023/11/29 14:41:27;;;;;;;2.97;2.42;;;;;;;;;;5111478;27;20067;-82
2023/11/29 14:43:54;;;;;;;3.80;2.20;;;;;;;;;;5112611;27;20511;-81
2023/11/29 14:46:21;;;;;;;3.47;2.60;;;;;;;;;;5098997;27;20089;-79